sensor_id;sensor_type;location;lat;lon;timestamp;P1;durP1;ratioP1;P2;durP2;ratioP2
27706;SDS011;36332;51.384;0.040;2022-08-03T00:00:32;19.23;;;5.75;;
27706;SDS011;36332;51.384;0.040;2022-08-03T00:03:00;25.20;;;5.97;;
27706;SDS011;36332;51.384;0.040;2022-08-03T00:05:31;25.75;;;6.18;;
27706;SDS011;36332;51.384;0.040;2022-08-03T00:07:59;18.85;;;5.18;;
27706;SDS011;36332;51.384;0.040;2022-08-03T00:10:28;17.55;;;5.82;;
27706;SDS011;36332;51.384;0.040;2022-08-03T00:12:56;19.30;;;5.68;;
27706;SDS011;36332;51.384;0.040;2022-08-03T00:15:24;21.90;;;6.25;;
27706;SDS011;36332;51.384;0.040;2022-08-03T00:17:52;23.05;;;7.00;;
27706;SDS011;36332;51.384;0.040;2022-08-03T00:20:20;16.90;;;6.40;;
27706;SDS011;36332;51.384;0.040;2022-08-03T00:22:49;22.98;;;7.53;;
27706;SDS011;36332;51.384;0.040;2022-08-03T00:25:18;18.73;;;5.43;;
27706;SDS011;36332;51.384;0.040;2022-08-03T00:27:46;19.58;;;6.93;;
27706;SDS011;36332;51.384;0.040;2022-08-03T00:30:16;21.73;;;6.15;;
27706;SDS011;36332;51.384;0.040;2022-08-03T00:32:46;23.17;;;6.10;;
27706;SDS011;36332;51.384;0.040;2022-08-03T00:35:15;25.58;;;6.53;;
27706;SDS011;36332;51.384;0.040;2022-08-03T00:38:03;34.58;;;7.65;;
27706;SDS011;36332;51.384;0.040;2022-08-03T00:40:32;25.10;;;5.85;;
27706;SDS011;36332;51.384;0.040;2022-08-03T00:43:02;15.40;;;4.97;;
27706;SDS011;36332;51.384;0.040;2022-08-03T00:45:32;23.70;;;6.13;;
27706;SDS011;36332;51.384;0.040;2022-08-03T00:48:05;30.67;;;8.05;;
27706;SDS011;36332;51.384;0.040;2022-08-03T00:50:54;28.13;;;6.47;;
27706;SDS011;36332;51.384;0.040;2022-08-03T00:53:23;22.00;;;6.90;;
27706;SDS011;36332;51.384;0.040;2022-08-03T00:55:51;24.35;;;7.40;;
27706;SDS011;36332;51.384;0.040;2022-08-03T00:58:20;22.52;;;6.50;;
27706;SDS011;36332;51.384;0.040;2022-08-03T01:00:48;23.33;;;7.53;;
27706;SDS011;36332;51.384;0.040;2022-08-03T01:03:18;28.75;;;6.68;;
27706;SDS011;36332;51.384;0.040;2022-08-03T01:08:25;25.45;;;6.50;;
27706;SDS011;36332;51.384;0.040;2022-08-03T01:11:28;21.17;;;6.97;;
27706;SDS011;36332;51.384;0.040;2022-08-03T01:14:26;26.13;;;7.20;;
27706;SDS011;36332;51.384;0.040;2022-08-03T01:17:16;26.45;;;8.05;;
27706;SDS011;36332;51.384;0.040;2022-08-03T01:20:02;33.15;;;9.77;;
27706;SDS011;36332;51.384;0.040;2022-08-03T01:22:39;27.58;;;9.57;;
27706;SDS011;36332;51.384;0.040;2022-08-03T01:25:45;25.52;;;10.55;;
27706;SDS011;36332;51.384;0.040;2022-08-03T01:31:19;20.55;;;10.00;;
27706;SDS011;36332;51.384;0.040;2022-08-03T01:33:55;31.20;;;11.30;;
27706;SDS011;36332;51.384;0.040;2022-08-03T01:36:28;29.33;;;11.75;;
27706;SDS011;36332;51.384;0.040;2022-08-03T01:39:02;29.33;;;10.27;;
27706;SDS011;36332;51.384;0.040;2022-08-03T01:41:37;31.45;;;12.48;;
27706;SDS011;36332;51.384;0.040;2022-08-03T01:44:10;26.17;;;12.30;;
27706;SDS011;36332;51.384;0.040;2022-08-03T01:46:57;30.30;;;13.20;;
27706;SDS011;36332;51.384;0.040;2022-08-03T01:49:27;28.88;;;12.65;;
27706;SDS011;36332;51.384;0.040;2022-08-03T01:51:58;33.08;;;14.90;;
27706;SDS011;36332;51.384;0.040;2022-08-03T01:54:34;29.77;;;14.45;;
27706;SDS011;36332;51.384;0.040;2022-08-03T01:57:03;35.80;;;14.15;;
27706;SDS011;36332;51.384;0.040;2022-08-03T01:59:33;24.77;;;13.45;;
27706;SDS011;36332;51.384;0.040;2022-08-03T02:02:03;39.15;;;13.65;;
27706;SDS011;36332;51.384;0.040;2022-08-03T02:04:53;32.45;;;13.35;;
27706;SDS011;36332;51.384;0.040;2022-08-03T02:07:24;32.80;;;13.73;;
27706;SDS011;36332;51.384;0.040;2022-08-03T02:09:53;30.35;;;13.65;;
27706;SDS011;36332;51.384;0.040;2022-08-03T02:12:27;28.90;;;11.77;;
27706;SDS011;36332;51.384;0.040;2022-08-03T02:14:58;26.92;;;11.63;;
27706;SDS011;36332;51.384;0.040;2022-08-03T02:17:27;26.35;;;11.02;;
27706;SDS011;36332;51.384;0.040;2022-08-03T02:20:06;26.70;;;11.68;;
27706;SDS011;36332;51.384;0.040;2022-08-03T02:22:40;32.92;;;10.80;;
27706;SDS011;36332;51.384;0.040;2022-08-03T02:25:11;28.50;;;10.65;;
27706;SDS011;36332;51.384;0.040;2022-08-03T02:27:45;22.13;;;9.32;;
27706;SDS011;36332;51.384;0.040;2022-08-03T02:30:18;20.17;;;9.30;;
27706;SDS011;36332;51.384;0.040;2022-08-03T02:32:47;26.15;;;9.23;;
27706;SDS011;36332;51.384;0.040;2022-08-03T02:35:22;20.45;;;8.32;;
27706;SDS011;36332;51.384;0.040;2022-08-03T02:37:55;23.75;;;7.45;;
27706;SDS011;36332;51.384;0.040;2022-08-03T02:40:28;24.73;;;8.35;;
27706;SDS011;36332;51.384;0.040;2022-08-03T02:42:59;17.52;;;6.78;;
27706;SDS011;36332;51.384;0.040;2022-08-03T02:45:31;32.40;;;7.25;;
27706;SDS011;36332;51.384;0.040;2022-08-03T02:48:02;19.67;;;7.18;;
27706;SDS011;36332;51.384;0.040;2022-08-03T02:50:32;21.92;;;6.47;;
27706;SDS011;36332;51.384;0.040;2022-08-03T02:53:02;22.70;;;7.18;;
27706;SDS011;36332;51.384;0.040;2022-08-03T02:55:30;16.65;;;6.40;;
27706;SDS011;36332;51.384;0.040;2022-08-03T02:58:09;24.55;;;5.82;;
27706;SDS011;36332;51.384;0.040;2022-08-03T03:00:43;14.20;;;5.45;;
27706;SDS011;36332;51.384;0.040;2022-08-03T03:03:12;26.27;;;7.07;;
27706;SDS011;36332;51.384;0.040;2022-08-03T03:05:42;25.33;;;5.30;;
27706;SDS011;36332;51.384;0.040;2022-08-03T03:08:22;14.65;;;5.18;;
27706;SDS011;36332;51.384;0.040;2022-08-03T03:10:56;17.98;;;5.18;;
27706;SDS011;36332;51.384;0.040;2022-08-03T03:13:27;15.05;;;5.32;;
27706;SDS011;36332;51.384;0.040;2022-08-03T03:15:58;25.40;;;5.57;;
27706;SDS011;36332;51.384;0.040;2022-08-03T03:18:32;19.42;;;5.95;;
27706;SDS011;36332;51.384;0.040;2022-08-03T03:21:01;24.10;;;6.18;;
27706;SDS011;36332;51.384;0.040;2022-08-03T03:23:31;19.95;;;6.25;;
27706;SDS011;36332;51.384;0.040;2022-08-03T03:26:06;25.73;;;6.55;;
27706;SDS011;36332;51.384;0.040;2022-08-03T03:28:35;26.85;;;6.43;;
27706;SDS011;36332;51.384;0.040;2022-08-03T03:31:06;17.08;;;6.05;;
27706;SDS011;36332;51.384;0.040;2022-08-03T03:33:35;17.48;;;5.80;;
27706;SDS011;36332;51.384;0.040;2022-08-03T03:36:04;30.85;;;7.53;;
27706;SDS011;36332;51.384;0.040;2022-08-03T03:38:34;28.67;;;7.30;;
27706;SDS011;36332;51.384;0.040;2022-08-03T03:41:03;23.33;;;7.30;;
27706;SDS011;36332;51.384;0.040;2022-08-03T03:43:31;26.55;;;7.80;;
27706;SDS011;36332;51.384;0.040;2022-08-03T03:45:59;25.45;;;8.32;;
27706;SDS011;36332;51.384;0.040;2022-08-03T03:48:27;26.90;;;7.68;;
27706;SDS011;36332;51.384;0.040;2022-08-03T03:50:58;22.80;;;8.18;;
27706;SDS011;36332;51.384;0.040;2022-08-03T03:53:27;24.52;;;6.60;;
27706;SDS011;36332;51.384;0.040;2022-08-03T03:55:55;27.73;;;8.35;;
27706;SDS011;36332;51.384;0.040;2022-08-03T03:58:30;20.08;;;7.18;;
27706;SDS011;36332;51.384;0.040;2022-08-03T04:00:59;22.88;;;7.05;;
27706;SDS011;36332;51.384;0.040;2022-08-03T04:03:28;26.55;;;7.45;;
27706;SDS011;36332;51.384;0.040;2022-08-03T04:05:56;27.27;;;6.35;;
27706;SDS011;36332;51.384;0.040;2022-08-03T04:08:44;28.83;;;8.65;;
27706;SDS011;36332;51.384;0.040;2022-08-03T04:11:35;21.67;;;7.82;;
27706;SDS011;36332;51.384;0.040;2022-08-03T04:14:08;28.35;;;7.80;;
27706;SDS011;36332;51.384;0.040;2022-08-03T04:16:40;23.73;;;8.73;;
27706;SDS011;36332;51.384;0.040;2022-08-03T04:19:33;18.48;;;9.23;;
27706;SDS011;36332;51.384;0.040;2022-08-03T04:22:05;22.05;;;9.43;;
27706;SDS011;36332;51.384;0.040;2022-08-03T04:24:41;20.80;;;9.38;;
27706;SDS011;36332;51.384;0.040;2022-08-03T04:27:18;20.23;;;8.75;;
27706;SDS011;36332;51.384;0.040;2022-08-03T04:29:49;24.85;;;9.55;;
27706;SDS011;36332;51.384;0.040;2022-08-03T04:32:19;27.48;;;9.77;;
27706;SDS011;36332;51.384;0.040;2022-08-03T04:34:52;24.60;;;9.57;;
27706;SDS011;36332;51.384;0.040;2022-08-03T04:37:25;21.25;;;8.88;;
27706;SDS011;36332;51.384;0.040;2022-08-03T04:40:14;20.35;;;10.48;;
27706;SDS011;36332;51.384;0.040;2022-08-03T04:42:56;19.92;;;9.77;;
27706;SDS011;36332;51.384;0.040;2022-08-03T04:45:27;23.60;;;9.48;;
27706;SDS011;36332;51.384;0.040;2022-08-03T04:47:56;28.67;;;10.02;;
27706;SDS011;36332;51.384;0.040;2022-08-03T04:50:28;21.30;;;9.40;;
27706;SDS011;36332;51.384;0.040;2022-08-03T04:53:04;29.25;;;10.95;;
27706;SDS011;36332;51.384;0.040;2022-08-03T04:55:33;25.40;;;10.85;;
27706;SDS011;36332;51.384;0.040;2022-08-03T04:58:05;28.10;;;11.60;;
27706;SDS011;36332;51.384;0.040;2022-08-03T05:00:33;31.65;;;12.07;;
27706;SDS011;36332;51.384;0.040;2022-08-03T05:03:01;27.20;;;11.00;;
27706;SDS011;36332;51.384;0.040;2022-08-03T05:05:46;25.52;;;11.52;;
27706;SDS011;36332;51.384;0.040;2022-08-03T05:08:16;29.48;;;13.10;;
27706;SDS011;36332;51.384;0.040;2022-08-03T05:10:54;19.77;;;10.80;;
27706;SDS011;36332;51.384;0.040;2022-08-03T05:13:25;20.95;;;12.02;;
27706;SDS011;36332;51.384;0.040;2022-08-03T05:15:55;18.60;;;9.80;;
27706;SDS011;36332;51.384;0.040;2022-08-03T05:18:23;27.55;;;10.13;;
27706;SDS011;36332;51.384;0.040;2022-08-03T05:20:51;23.92;;;10.05;;
27706;SDS011;36332;51.384;0.040;2022-08-03T05:23:20;19.90;;;9.80;;
27706;SDS011;36332;51.384;0.040;2022-08-03T05:25:49;22.23;;;9.80;;
27706;SDS011;36332;51.384;0.040;2022-08-03T05:28:17;23.52;;;7.72;;
27706;SDS011;36332;51.384;0.040;2022-08-03T05:30:45;27.52;;;8.80;;
27706;SDS011;36332;51.384;0.040;2022-08-03T05:33:13;22.80;;;9.00;;
27706;SDS011;36332;51.384;0.040;2022-08-03T05:35:41;21.63;;;8.13;;
27706;SDS011;36332;51.384;0.040;2022-08-03T05:38:29;23.40;;;8.88;;
27706;SDS011;36332;51.384;0.040;2022-08-03T05:41:02;30.00;;;8.65;;
27706;SDS011;36332;51.384;0.040;2022-08-03T05:43:53;17.13;;;8.52;;
27706;SDS011;36332;51.384;0.040;2022-08-03T05:46:22;16.40;;;8.27;;
27706;SDS011;36332;51.384;0.040;2022-08-03T05:48:50;20.92;;;9.30;;
27706;SDS011;36332;51.384;0.040;2022-08-03T05:51:19;22.92;;;9.20;;
27706;SDS011;36332;51.384;0.040;2022-08-03T05:53:48;19.70;;;8.55;;
27706;SDS011;36332;51.384;0.040;2022-08-03T05:56:16;25.73;;;9.63;;
27706;SDS011;36332;51.384;0.040;2022-08-03T05:58:49;22.50;;;9.50;;
27706;SDS011;36332;51.384;0.040;2022-08-03T06:01:21;27.20;;;10.25;;
27706;SDS011;36332;51.384;0.040;2022-08-03T06:03:49;19.38;;;9.20;;
27706;SDS011;36332;51.384;0.040;2022-08-03T06:06:18;19.42;;;9.38;;
27706;SDS011;36332;51.384;0.040;2022-08-03T06:08:46;16.92;;;9.35;;
27706;SDS011;36332;51.384;0.040;2022-08-03T06:11:14;18.40;;;9.15;;
27706;SDS011;36332;51.384;0.040;2022-08-03T06:13:45;17.02;;;9.20;;
27706;SDS011;36332;51.384;0.040;2022-08-03T06:16:15;19.58;;;8.85;;
27706;SDS011;36332;51.384;0.040;2022-08-03T06:18:43;30.00;;;7.97;;
27706;SDS011;36332;51.384;0.040;2022-08-03T06:21:12;18.10;;;7.30;;
27706;SDS011;36332;51.384;0.040;2022-08-03T06:23:42;25.52;;;8.20;;
27706;SDS011;36332;51.384;0.040;2022-08-03T06:26:22;20.67;;;7.00;;
27706;SDS011;36332;51.384;0.040;2022-08-03T06:28:50;12.35;;;6.43;;
27706;SDS011;36332;51.384;0.040;2022-08-03T06:31:21;14.00;;;6.18;;
27706;SDS011;36332;51.384;0.040;2022-08-03T06:34:03;18.50;;;5.95;;
27706;SDS011;36332;51.384;0.040;2022-08-03T06:36:51;16.20;;;5.32;;
27706;SDS011;36332;51.384;0.040;2022-08-03T06:39:28;20.90;;;5.95;;
27706;SDS011;36332;51.384;0.040;2022-08-03T06:41:59;15.63;;;6.03;;
27706;SDS011;36332;51.384;0.040;2022-08-03T06:44:27;12.27;;;5.70;;
27706;SDS011;36332;51.384;0.040;2022-08-03T06:46:57;17.98;;;6.45;;
27706;SDS011;36332;51.384;0.040;2022-08-03T06:49:24;13.00;;;4.88;;
27706;SDS011;36332;51.384;0.040;2022-08-03T06:51:53;18.98;;;4.85;;
27706;SDS011;36332;51.384;0.040;2022-08-03T06:54:32;16.52;;;5.63;;
27706;SDS011;36332;51.384;0.040;2022-08-03T06:57:01;7.63;;;4.38;;
27706;SDS011;36332;51.384;0.040;2022-08-03T06:59:30;10.35;;;3.95;;
27706;SDS011;36332;51.384;0.040;2022-08-03T07:02:18;9.07;;;3.80;;
27706;SDS011;36332;51.384;0.040;2022-08-03T07:04:47;9.77;;;4.07;;
27706;SDS011;36332;51.384;0.040;2022-08-03T07:07:15;9.43;;;3.95;;
27706;SDS011;36332;51.384;0.040;2022-08-03T07:09:45;12.40;;;3.95;;
27706;SDS011;36332;51.384;0.040;2022-08-03T07:12:27;5.43;;;4.28;;
27706;SDS011;36332;51.384;0.040;2022-08-03T07:14:57;7.28;;;3.85;;
27706;SDS011;36332;51.384;0.040;2022-08-03T07:17:30;6.28;;;4.03;;
27706;SDS011;36332;51.384;0.040;2022-08-03T07:20:00;9.98;;;4.82;;
27706;SDS011;36332;51.384;0.040;2022-08-03T07:22:29;6.00;;;3.80;;
27706;SDS011;36332;51.384;0.040;2022-08-03T07:24:57;4.82;;;3.25;;
27706;SDS011;36332;51.384;0.040;2022-08-03T07:27:26;5.97;;;3.58;;
27706;SDS011;36332;51.384;0.040;2022-08-03T07:29:55;5.00;;;3.20;;
27706;SDS011;36332;51.384;0.040;2022-08-03T07:32:24;7.55;;;3.38;;
27706;SDS011;36332;51.384;0.040;2022-08-03T07:34:53;6.50;;;3.05;;
27706;SDS011;36332;51.384;0.040;2022-08-03T07:37:27;4.22;;;2.90;;
27706;SDS011;36332;51.384;0.040;2022-08-03T07:40:00;3.42;;;2.85;;
27706;SDS011;36332;51.384;0.040;2022-08-03T07:42:30;6.47;;;2.90;;
27706;SDS011;36332;51.384;0.040;2022-08-03T07:44:58;6.40;;;4.20;;
27706;SDS011;36332;51.384;0.040;2022-08-03T07:47:27;4.57;;;3.38;;
27706;SDS011;36332;51.384;0.040;2022-08-03T07:50:02;6.70;;;3.45;;
27706;SDS011;36332;51.384;0.040;2022-08-03T07:52:35;6.78;;;3.45;;
27706;SDS011;36332;51.384;0.040;2022-08-03T07:55:16;6.85;;;2.90;;
27706;SDS011;36332;51.384;0.040;2022-08-03T07:57:46;6.35;;;2.45;;
27706;SDS011;36332;51.384;0.040;2022-08-03T08:00:25;2.78;;;2.33;;
27706;SDS011;36332;51.384;0.040;2022-08-03T08:02:53;5.03;;;2.80;;
27706;SDS011;36332;51.384;0.040;2022-08-03T08:05:21;2.88;;;2.38;;
27706;SDS011;36332;51.384;0.040;2022-08-03T08:07:53;4.68;;;2.00;;
27706;SDS011;36332;51.384;0.040;2022-08-03T08:10:21;3.63;;;2.22;;
27706;SDS011;36332;51.384;0.040;2022-08-03T08:12:49;2.90;;;1.80;;
27706;SDS011;36332;51.384;0.040;2022-08-03T08:15:19;3.13;;;2.28;;
27706;SDS011;36332;51.384;0.040;2022-08-03T08:17:51;5.72;;;1.38;;
27706;SDS011;36332;51.384;0.040;2022-08-03T08:20:22;3.53;;;1.90;;
27706;SDS011;36332;51.384;0.040;2022-08-03T08:22:57;4.47;;;2.33;;
27706;SDS011;36332;51.384;0.040;2022-08-03T08:25:30;2.63;;;1.55;;
27706;SDS011;36332;51.384;0.040;2022-08-03T08:27:59;1.27;;;1.02;;
27706;SDS011;36332;51.384;0.040;2022-08-03T08:30:50;5.75;;;1.58;;
27706;SDS011;36332;51.384;0.040;2022-08-03T08:33:18;2.60;;;1.38;;
27706;SDS011;36332;51.384;0.040;2022-08-03T08:35:50;3.28;;;1.58;;
27706;SDS011;36332;51.384;0.040;2022-08-03T08:38:20;4.18;;;1.60;;
27706;SDS011;36332;51.384;0.040;2022-08-03T08:40:48;3.80;;;1.88;;
27706;SDS011;36332;51.384;0.040;2022-08-03T08:43:17;1.38;;;1.27;;
27706;SDS011;36332;51.384;0.040;2022-08-03T08:45:46;4.22;;;1.80;;
27706;SDS011;36332;51.384;0.040;2022-08-03T08:48:17;4.53;;;1.80;;
27706;SDS011;36332;51.384;0.040;2022-08-03T08:50:54;2.88;;;1.95;;
27706;SDS011;36332;51.384;0.040;2022-08-03T08:53:25;5.95;;;1.55;;
27706;SDS011;36332;51.384;0.040;2022-08-03T08:55:57;2.40;;;1.70;;
27706;SDS011;36332;51.384;0.040;2022-08-03T08:58:29;2.22;;;1.50;;
27706;SDS011;36332;51.384;0.040;2022-08-03T09:01:03;1.63;;;1.40;;
27706;SDS011;36332;51.384;0.040;2022-08-03T09:03:32;4.72;;;1.60;;
27706;SDS011;36332;51.384;0.040;2022-08-03T09:06:01;4.30;;;1.73;;
27706;SDS011;36332;51.384;0.040;2022-08-03T09:08:30;2.67;;;1.30;;
27706;SDS011;36332;51.384;0.040;2022-08-03T09:10:59;3.22;;;1.58;;
27706;SDS011;36332;51.384;0.040;2022-08-03T09:13:27;4.28;;;1.48;;
27706;SDS011;36332;51.384;0.040;2022-08-03T09:18:38;4.65;;;2.13;;
27706;SDS011;36332;51.384;0.040;2022-08-03T09:21:12;3.10;;;2.33;;
27706;SDS011;36332;51.384;0.040;2022-08-03T09:23:58;1.70;;;1.48;;
27706;SDS011;36332;51.384;0.040;2022-08-03T09:26:30;5.80;;;2.17;;
27706;SDS011;36332;51.384;0.040;2022-08-03T09:29:01;3.83;;;1.40;;
27706;SDS011;36332;51.384;0.040;2022-08-03T09:31:41;5.07;;;1.70;;
27706;SDS011;36332;51.384;0.040;2022-08-03T09:34:13;3.35;;;2.10;;
27706;SDS011;36332;51.384;0.040;2022-08-03T09:42:07;3.50;;;2.05;;
27706;SDS011;36332;51.384;0.040;2022-08-03T09:44:50;3.90;;;1.65;;
27706;SDS011;36332;51.384;0.040;2022-08-03T09:47:36;4.40;;;1.50;;
27706;SDS011;36332;51.384;0.040;2022-08-03T09:50:11;3.08;;;1.70;;
27706;SDS011;36332;51.384;0.040;2022-08-03T09:52:42;2.65;;;1.85;;
27706;SDS011;36332;51.384;0.040;2022-08-03T09:55:16;4.20;;;1.65;;
27706;SDS011;36332;51.384;0.040;2022-08-03T09:58:07;5.95;;;1.42;;
27706;SDS011;36332;51.384;0.040;2022-08-03T10:00:53;6.07;;;1.70;;
27706;SDS011;36332;51.384;0.040;2022-08-03T10:05:53;3.55;;;1.70;;
27706;SDS011;36332;51.384;0.040;2022-08-03T10:08:26;4.63;;;2.05;;
27706;SDS011;36332;51.384;0.040;2022-08-03T10:10:55;6.30;;;2.10;;
27706;SDS011;36332;51.384;0.040;2022-08-03T10:13:24;6.28;;;2.03;;
27706;SDS011;36332;51.384;0.040;2022-08-03T10:15:55;3.00;;;1.95;;
27706;SDS011;36332;51.384;0.040;2022-08-03T10:18:43;5.60;;;2.13;;
27706;SDS011;36332;51.384;0.040;2022-08-03T10:21:11;6.93;;;1.90;;
27706;SDS011;36332;51.384;0.040;2022-08-03T10:23:43;1.75;;;1.38;;
27706;SDS011;36332;51.384;0.040;2022-08-03T10:26:15;6.18;;;1.98;;
27706;SDS011;36332;51.384;0.040;2022-08-03T10:28:48;6.93;;;2.25;;
27706;SDS011;36332;51.384;0.040;2022-08-03T10:31:17;3.75;;;1.90;;
27706;SDS011;36332;51.384;0.040;2022-08-03T10:33:49;6.10;;;2.20;;
27706;SDS011;36332;51.384;0.040;2022-08-03T10:36:22;4.95;;;1.95;;
27706;SDS011;36332;51.384;0.040;2022-08-03T10:38:52;4.50;;;1.80;;
27706;SDS011;36332;51.384;0.040;2022-08-03T10:41:24;5.45;;;2.03;;
27706;SDS011;36332;51.384;0.040;2022-08-03T10:44:01;5.15;;;1.73;;
27706;SDS011;36332;51.384;0.040;2022-08-03T10:46:34;6.03;;;2.28;;
27706;SDS011;36332;51.384;0.040;2022-08-03T10:49:12;11.43;;;3.08;;
27706;SDS011;36332;51.384;0.040;2022-08-03T10:52:02;8.40;;;2.70;;
27706;SDS011;36332;51.384;0.040;2022-08-03T10:54:51;11.85;;;2.65;;
27706;SDS011;36332;51.384;0.040;2022-08-03T10:57:49;7.40;;;1.77;;
27706;SDS011;36332;51.384;0.040;2022-08-03T11:00:26;5.00;;;2.13;;
27706;SDS011;36332;51.384;0.040;2022-08-03T11:03:10;3.95;;;2.17;;
27706;SDS011;36332;51.384;0.040;2022-08-03T11:05:47;8.23;;;1.85;;
27706;SDS011;36332;51.384;0.040;2022-08-03T11:10:59;7.15;;;2.35;;
27706;SDS011;36332;51.384;0.040;2022-08-03T11:13:29;4.35;;;1.98;;
27706;SDS011;36332;51.384;0.040;2022-08-03T11:16:01;9.93;;;1.90;;
27706;SDS011;36332;51.384;0.040;2022-08-03T11:18:58;6.88;;;2.13;;
27706;SDS011;36332;51.384;0.040;2022-08-03T11:35:15;9.18;;;3.08;;
27706;SDS011;36332;51.384;0.040;2022-08-03T11:48:33;9.10;;;2.85;;
27706;SDS011;36332;51.384;0.040;2022-08-03T11:51:06;7.78;;;2.60;;
27706;SDS011;36332;51.384;0.040;2022-08-03T11:53:44;12.75;;;2.45;;
27706;SDS011;36332;51.384;0.040;2022-08-03T11:56:15;11.80;;;1.88;;
27706;SDS011;36332;51.384;0.040;2022-08-03T11:58:46;9.02;;;2.35;;
27706;SDS011;36332;51.384;0.040;2022-08-03T12:01:35;11.00;;;3.05;;
27706;SDS011;36332;51.384;0.040;2022-08-03T12:04:03;9.43;;;2.10;;
27706;SDS011;36332;51.384;0.040;2022-08-03T12:06:34;7.32;;;1.80;;
27706;SDS011;36332;51.384;0.040;2022-08-03T12:09:24;12.70;;;1.73;;
27706;SDS011;36332;51.384;0.040;2022-08-03T12:11:52;7.25;;;2.15;;
27706;SDS011;36332;51.384;0.040;2022-08-03T12:14:27;9.60;;;2.00;;
27706;SDS011;36332;51.384;0.040;2022-08-03T12:17:18;9.90;;;1.98;;
27706;SDS011;36332;51.384;0.040;2022-08-03T12:19:46;5.85;;;1.70;;
27706;SDS011;36332;51.384;0.040;2022-08-03T12:22:14;12.13;;;2.35;;
27706;SDS011;36332;51.384;0.040;2022-08-03T12:24:43;12.15;;;1.90;;
27706;SDS011;36332;51.384;0.040;2022-08-03T12:27:23;10.57;;;2.67;;
27706;SDS011;36332;51.384;0.040;2022-08-03T12:29:52;11.18;;;1.83;;
27706;SDS011;36332;51.384;0.040;2022-08-03T12:32:26;6.38;;;1.40;;
27706;SDS011;36332;51.384;0.040;2022-08-03T12:34:55;8.23;;;2.47;;
27706;SDS011;36332;51.384;0.040;2022-08-03T12:37:28;7.70;;;1.60;;
27706;SDS011;36332;51.384;0.040;2022-08-03T12:39:58;9.35;;;1.38;;
27706;SDS011;36332;51.384;0.040;2022-08-03T12:42:37;4.60;;;1.20;;
27706;SDS011;36332;51.384;0.040;2022-08-03T12:45:19;9.00;;;1.80;;
27706;SDS011;36332;51.384;0.040;2022-08-03T12:47:50;9.45;;;1.80;;
27706;SDS011;36332;51.384;0.040;2022-08-03T12:50:24;5.10;;;1.33;;
27706;SDS011;36332;51.384;0.040;2022-08-03T12:53:00;10.98;;;2.00;;
27706;SDS011;36332;51.384;0.040;2022-08-03T12:55:35;9.18;;;2.22;;
27706;SDS011;36332;51.384;0.040;2022-08-03T12:58:29;8.60;;;1.70;;
27706;SDS011;36332;51.384;0.040;2022-08-03T13:01:02;4.88;;;1.73;;
27706;SDS011;36332;51.384;0.040;2022-08-03T13:03:43;8.45;;;1.63;;
27706;SDS011;36332;51.384;0.040;2022-08-03T13:06:20;6.63;;;1.33;;
27706;SDS011;36332;51.384;0.040;2022-08-03T13:09:06;8.27;;;1.58;;
27706;SDS011;36332;51.384;0.040;2022-08-03T13:11:34;13.90;;;2.08;;
27706;SDS011;36332;51.384;0.040;2022-08-03T13:14:24;5.30;;;1.17;;
27706;SDS011;36332;51.384;0.040;2022-08-03T13:16:52;8.85;;;1.23;;
27706;SDS011;36332;51.384;0.040;2022-08-03T13:19:20;8.90;;;1.33;;
27706;SDS011;36332;51.384;0.040;2022-08-03T13:21:51;9.40;;;2.33;;
27706;SDS011;36332;51.384;0.040;2022-08-03T13:24:31;5.13;;;1.42;;
27706;SDS011;36332;51.384;0.040;2022-08-03T13:27:00;6.22;;;1.80;;
27706;SDS011;36332;51.384;0.040;2022-08-03T13:29:49;11.32;;;1.40;;
27706;SDS011;36332;51.384;0.040;2022-08-03T13:32:17;12.55;;;2.00;;
27706;SDS011;36332;51.384;0.040;2022-08-03T13:34:46;7.88;;;1.85;;
27706;SDS011;36332;51.384;0.040;2022-08-03T13:37:15;6.15;;;1.50;;
27706;SDS011;36332;51.384;0.040;2022-08-03T13:39:43;11.55;;;1.73;;
27706;SDS011;36332;51.384;0.040;2022-08-03T13:42:26;6.43;;;1.55;;
27706;SDS011;36332;51.384;0.040;2022-08-03T13:44:55;6.65;;;1.45;;
27706;SDS011;36332;51.384;0.040;2022-08-03T13:47:23;5.50;;;1.10;;
27706;SDS011;36332;51.384;0.040;2022-08-03T13:49:52;10.32;;;1.50;;
27706;SDS011;36332;51.384;0.040;2022-08-03T13:52:33;9.07;;;2.05;;
27706;SDS011;36332;51.384;0.040;2022-08-03T13:55:02;8.00;;;1.63;;
27706;SDS011;36332;51.384;0.040;2022-08-03T13:57:33;8.57;;;2.35;;
27706;SDS011;36332;51.384;0.040;2022-08-03T14:00:21;8.40;;;1.60;;
27706;SDS011;36332;51.384;0.040;2022-08-03T14:02:56;6.00;;;1.42;;
27706;SDS011;36332;51.384;0.040;2022-08-03T14:05:32;7.07;;;1.95;;
27706;SDS011;36332;51.384;0.040;2022-08-03T14:08:01;6.68;;;1.02;;
27706;SDS011;36332;51.384;0.040;2022-08-03T14:10:32;9.00;;;2.35;;
27706;SDS011;36332;51.384;0.040;2022-08-03T14:13:02;7.65;;;1.83;;
27706;SDS011;36332;51.384;0.040;2022-08-03T14:15:30;6.60;;;1.85;;
27706;SDS011;36332;51.384;0.040;2022-08-03T14:18:05;4.40;;;1.60;;
27706;SDS011;36332;51.384;0.040;2022-08-03T14:20:42;9.70;;;2.10;;
27706;SDS011;36332;51.384;0.040;2022-08-03T14:23:16;11.63;;;1.80;;
27706;SDS011;36332;51.384;0.040;2022-08-03T14:25:44;6.95;;;1.80;;
27706;SDS011;36332;51.384;0.040;2022-08-03T14:28:19;7.28;;;1.70;;
27706;SDS011;36332;51.384;0.040;2022-08-03T14:30:52;9.68;;;1.98;;
27706;SDS011;36332;51.384;0.040;2022-08-03T14:33:22;4.22;;;1.60;;
27706;SDS011;36332;51.384;0.040;2022-08-03T14:35:50;8.05;;;2.45;;
27706;SDS011;36332;51.384;0.040;2022-08-03T14:38:19;8.30;;;1.90;;
27706;SDS011;36332;51.384;0.040;2022-08-03T14:40:47;7.57;;;2.00;;
27706;SDS011;36332;51.384;0.040;2022-08-03T14:43:16;5.07;;;1.95;;
27706;SDS011;36332;51.384;0.040;2022-08-03T14:45:44;11.82;;;2.10;;
27706;SDS011;36332;51.384;0.040;2022-08-03T14:48:12;10.63;;;1.77;;
27706;SDS011;36332;51.384;0.040;2022-08-03T14:51:01;9.07;;;1.70;;
27706;SDS011;36332;51.384;0.040;2022-08-03T14:53:30;9.02;;;1.90;;
27706;SDS011;36332;51.384;0.040;2022-08-03T14:55:59;10.02;;;1.70;;
27706;SDS011;36332;51.384;0.040;2022-08-03T14:58:30;15.75;;;2.45;;
27706;SDS011;36332;51.384;0.040;2022-08-03T15:01:01;5.65;;;1.42;;
27706;SDS011;36332;51.384;0.040;2022-08-03T15:03:48;8.13;;;1.42;;
27706;SDS011;36332;51.384;0.040;2022-08-03T15:06:16;7.70;;;1.52;;
27706;SDS011;36332;51.384;0.040;2022-08-03T15:08:44;11.20;;;2.45;;
27706;SDS011;36332;51.384;0.040;2022-08-03T15:11:32;5.03;;;1.50;;
27706;SDS011;36332;51.384;0.040;2022-08-03T15:14:00;12.43;;;2.25;;
27706;SDS011;36332;51.384;0.040;2022-08-03T15:16:34;4.95;;;1.75;;
27706;SDS011;36332;51.384;0.040;2022-08-03T15:19:03;5.85;;;1.30;;
27706;SDS011;36332;51.384;0.040;2022-08-03T15:21:51;8.68;;;1.98;;
27706;SDS011;36332;51.384;0.040;2022-08-03T15:24:19;6.15;;;1.15;;
27706;SDS011;36332;51.384;0.040;2022-08-03T15:26:49;6.55;;;1.10;;
27706;SDS011;36332;51.384;0.040;2022-08-03T15:29:18;4.70;;;1.55;;
27706;SDS011;36332;51.384;0.040;2022-08-03T15:32:06;9.32;;;1.83;;
27706;SDS011;36332;51.384;0.040;2022-08-03T15:34:35;6.28;;;1.35;;
27706;SDS011;36332;51.384;0.040;2022-08-03T15:37:04;6.25;;;1.48;;
27706;SDS011;36332;51.384;0.040;2022-08-03T15:39:42;4.80;;;1.48;;
27706;SDS011;36332;51.384;0.040;2022-08-03T15:42:30;5.38;;;1.73;;
27706;SDS011;36332;51.384;0.040;2022-08-03T15:44:59;4.63;;;1.20;;
27706;SDS011;36332;51.384;0.040;2022-08-03T15:47:30;8.73;;;1.67;;
27706;SDS011;36332;51.384;0.040;2022-08-03T15:49:58;6.32;;;1.50;;
27706;SDS011;36332;51.384;0.040;2022-08-03T15:52:26;11.07;;;1.45;;
27706;SDS011;36332;51.384;0.040;2022-08-03T15:54:54;9.32;;;1.80;;
27706;SDS011;36332;51.384;0.040;2022-08-03T15:57:23;7.28;;;1.52;;